Time;durP1;ratioP1;P1;durP2;ratioP2;P2;SDS_P1;SDS_P2;PMS_P1;PMS_P2;Temp;Humidity;BMP_temperature;BMP_pressure;BME280_temperature;BME280_humidity;BME280_pressure;Samples;Min_cycle;Max_cycle;Signal;HPM_P1;HPM_P2
2022/09/03 00:00:15;;;;;;;8.32;7.53;;;21.30;43.70;;;;;;4989932;28;20034;-84
2022/09/03 00:02:48;;;;;;;7.97;7.28;;;21.10;44.10;;;;;;4990356;28;20030;-86
2022/09/03 00:05:17;;;;;;;9.88;7.88;;;21.10;49.90;;;;;;4990572;28;20023;-84
2022/09/03 00:08:05;;;;;;;10.75;7.78;;;21.10;42.90;;;;;;4990682;28;20061;-85
2022/09/03 00:10:56;;;;;;;8.23;7.45;;;21.20;43.20;;;;;;4994098;28;20107;-84
2022/09/03 00:13:43;;;;;;;8.95;7.82;;;21.20;48.80;;;;;;4994332;28;20070;-85
2022/09/03 00:16:12;;;;;;;11.32;7.55;;;21.00;42.10;;;;;;5004126;28;20072;-85
2022/09/03 00:18:47;;;;;;;9.45;7.45;;;21.10;42.30;;;;;;5013426;28;20038;-85
2022/09/03 00:21:42;;;;;;;8.38;7.57;;;21.00;44.80;;;;;;5013576;28;20034;-85
2022/09/03 00:24:12;;;;;;;8.02;7.32;;;21.10;46.30;;;;;;5013563;28;20493;-85
2022/09/03 00:26:41;;;;;;;8.80;7.22;;;21.10;39.30;;;;;;5095654;28;20391;-85
2022/09/03 00:29:22;;;;;;;8.77;7.85;;;21.10;46.40;;;;;;5113126;28;20031;-85
2022/09/03 00:31:55;;;;;;;8.80;7.90;;;21.10;42.60;;;;;;5095212;28;20067;-85
2022/09/03 00:34:30;;;;;;;8.73;7.97;;;21.00;44.30;;;;;;5095166;28;20067;-85
2022/09/03 00:36:56;;;;;;;12.35;8.15;;;20.90;42.00;;;;;;5077584;28;20496;-84
2022/09/03 00:39:25;;;;;;;8.80;7.90;;;21.10;42.90;;;;;;5095550;28;20020;-85
2022/09/03 00:42:26;;;;;;;9.98;7.63;;;21.00;42.00;;;;;;5095250;28;20491;-85
2022/09/03 00:45:29;;;;;;;9.20;7.72;;;21.00;43.60;;;;;;5094719;28;20020;-85
2022/09/03 00:48:14;;;;;;;8.88;7.53;;;20.90;42.40;;;;;;5080980;28;20081;-85
2022/09/03 00:51:13;;;;;;;8.32;7.53;;;20.80;42.60;;;;;;5095067;28;20030;-84
2022/09/03 00:53:52;;;;;;;8.38;7.50;;;20.80;46.80;;;;;;5095390;28;20077;-84
2022/09/03 00:56:46;;;;;;;11.15;7.63;;;20.70;44.80;;;;;;5095063;28;20039;-84
2022/09/03 00:59:16;;;;;;;11.27;7.22;;;20.70;45.30;;;;;;5094641;28;20091;-85
2022/09/03 01:01:57;;;;;;;8.93;7.40;;;20.60;46.60;;;;;;5094865;28;20035;-85
2022/09/03 01:04:51;;;;;;;8.75;7.25;;;20.70;44.60;;;;;;5095162;28;20024;-85
2022/09/03 01:07:26;;;;;;;8.98;7.28;;;20.80;48.40;;;;;;5094996;28;20031;-84
2022/09/03 01:10:00;;;;;;;8.88;7.85;;;20.80;48.90;;;;;;5094671;28;20031;-85
2022/09/03 01:12:45;;;;;;;8.65;7.75;;;20.60;52.90;;;;;;5076208;28;20080;-85
2022/09/03 01:15:19;;;;;;;8.65;7.90;;;20.70;47.50;;;;;;5097124;28;20119;-84
2022/09/03 01:18:02;;;;;;;8.90;8.02;;;20.70;46.80;;;;;;5114886;28;20491;-84
2022/09/03 01:21:14;;;;;;;8.80;7.88;;;20.80;52.90;;;;;;5114780;28;20019;-85
2022/09/03 01:24:13;;;;;;;10.18;7.90;;;20.80;55.90;;;;;;5092550;28;20063;-84
2022/09/03 01:27:07;;;;;;;9.00;8.10;;;20.80;59.10;;;;;;5114380;28;20027;-85
2022/09/03 01:29:43;;;;;;;11.70;8.13;;;20.80;59.40;;;;;;5108386;28;20024;-85
2022/09/03 01:32:23;;;;;;;10.80;8.50;;;20.50;59.30;;;;;;5075774;28;20519;-84
2022/09/03 01:34:52;;;;;;;9.13;7.78;;;20.60;51.30;;;;;;5094205;28;20020;-85
2022/09/03 01:37:31;;;;;;;9.63;8.13;;;20.70;47.60;;;;;;5094576;28;20050;-84
2022/09/03 01:40:34;;;;;;;10.40;8.32;;;20.60;47.90;;;;;;5094128;28;20048;-85
2022/09/03 01:43:34;;;;;;;10.98;8.45;;;20.60;47.70;;;;;;5075421;28;20054;-84
2022/09/03 01:46:13;;;;;;;9.05;8.35;;;20.50;45.00;;;;;;5094234;28;20358;-84
2022/09/03 01:48:51;;;;;;;11.05;8.48;;;20.40;43.70;;;;;;5094247;28;20369;-85
2022/09/03 01:51:26;;;;;;;9.25;8.35;;;20.30;42.40;;;;;;5094035;28;20099;-84
2022/09/03 01:54:24;;;;;;;10.18;8.35;;;20.40;51.10;;;;;;5093884;28;20028;-85
2022/09/03 01:57:00;;;;;;;10.20;8.68;;;20.50;46.80;;;;;;5093359;28;20322;-84
2022/09/03 01:59:33;;;;;;;9.30;8.40;;;20.50;53.40;;;;;;5093696;28;20019;-84
2022/09/03 02:02:06;;;;;;;9.45;8.40;;;20.50;53.90;;;;;;5075559;28;20115;-84
2022/09/03 02:04:33;;;;;;;9.77;8.70;;;20.50;58.20;;;;;;5076248;28;20032;-85
2022/09/03 02:07:01;;;;;;;11.32;9.52;;;20.30;50.50;;;;;;5093496;28;20388;-84
2022/09/03 02:09:28;;;;;;;10.00;9.00;;;20.30;46.50;;;;;;5075354;28;20123;-85
2022/09/03 02:12:15;;;;;;;9.70;8.75;;;20.40;43.40;;;;;;5093478;28;20428;-84
2022/09/03 02:14:41;;;;;;;9.85;8.38;;;20.70;45.90;;;;;;5093319;28;20467;-85
2022/09/03 02:17:07;;;;;;;9.93;8.95;;;20.40;49.70;;;;;;5093045;28;20454;-85
2022/09/03 02:19:36;;;;;;;10.63;9.60;;;20.20;46.70;;;;;;5093608;28;20024;-84
2022/09/03 02:22:03;;;;;;;10.70;9.70;;;20.10;48.50;;;;;;5093420;28;20044;-85
2022/09/03 02:24:28;;;;;;;10.57;9.15;;;20.00;51.50;;;;;;5074823;28;20566;-84
2022/09/03 02:26:55;;;;;;;10.40;9.30;;;19.90;41.50;;;;;;5092693;28;20131;-84
2022/09/03 02:29:21;;;;;;;11.40;9.40;;;20.00;45.00;;;;;;5093313;28;20111;-85
2022/09/03 02:31:47;;;;;;;10.05;9.02;;;20.00;43.00;;;;;;5092256;28;20448;-84
2022/09/03 02:34:13;;;;;;;12.30;9.40;;;20.00;42.50;;;;;;5074910;28;20353;-84
2022/09/03 02:36:44;;;;;;;9.85;8.85;;;20.10;47.80;;;;;;5093238;28;20048;-84
2022/09/03 02:39:11;;;;;;;10.77;9.20;;;20.10;45.20;;;;;;5092525;28;20490;-84
2022/09/03 02:41:37;;;;;;;10.05;9.07;;;20.10;47.10;;;;;;5075087;28;20385;-84
2022/09/03 02:44:08;;;;;;;9.68;8.68;;;19.90;43.90;;;;;;5092868;28;20077;-85
2022/09/03 02:46:50;;;;;;;9.52;8.52;;;19.90;57.30;;;;;;5093051;28;20103;-85
2022/09/03 02:49:16;;;;;;;9.73;8.73;;;20.00;56.70;;;;;;5093076;28;20070;-85
2022/09/03 02:51:43;;;;;;;10.60;8.48;;;20.00;56.10;;;;;;5074755;28;20024;-85
2022/09/03 02:54:09;;;;;;;10.80;9.70;;;20.10;66.90;;;;;;5092451;28;20081;-85
2022/09/03 02:56:35;;;;;;;10.05;9.10;;;20.10;59.80;;;;;;5092781;28;20388;-84
2022/09/03 02:59:06;;;;;;;10.52;9.40;;;20.00;56.10;;;;;;5074521;28;20024;-84
2022/09/03 03:01:32;;;;;;;10.18;9.18;;;20.00;58.80;;;;;;5092676;28;20073;-85
2022/09/03 03:03:58;;;;;;;10.43;9.20;;;19.90;60.40;;;;;;5074462;28;20024;-84
2022/09/03 03:06:25;;;;;;;10.85;9.70;;;19.90;53.60;;;;;;5091418;28;20483;-84
2022/09/03 03:08:51;;;;;;;13.55;9.43;;;20.00;72.60;;;;;;5092181;28;20020;-85
2022/09/03 03:11:18;;;;;;;10.30;9.30;;;20.00;57.40;;;;;;5092593;28;20036;-84
2022/09/03 03:13:46;;;;;;;12.05;9.45;;;20.00;58.10;;;;;;5092738;28;20444;-84
2022/09/03 03:16:14;;;;;;;11.98;9.13;;;20.10;46.40;;;;;;5103878;28;20114;-84
2022/09/03 03:18:40;;;;;;;10.10;9.10;;;20.10;54.00;;;;;;5094570;28;20020;-84
2022/09/03 03:21:10;;;;;;;9.68;8.77;;;20.10;54.30;;;;;;5112646;28;20039;-84
2022/09/03 03:23:37;;;;;;;10.10;8.93;;;20.00;57.20;;;;;;5112927;28;20027;-84
2022/09/03 03:26:09;;;;;;;9.88;8.93;;;19.90;69.50;;;;;;5112651;28;20057;-84
2022/09/03 03:28:35;;;;;;;9.85;8.57;;;20.00;53.70;;;;;;5094310;28;20020;-84
2022/09/03 03:31:12;;;;;;;10.50;9.50;;;19.90;69.10;;;;;;5093815;28;20052;-85
2022/09/03 03:33:39;;;;;;;10.23;9.23;;;19.90;68.00;;;;;;5092652;28;20071;-84
2022/09/03 03:36:10;;;;;;;9.98;8.98;;;19.80;55.70;;;;;;5092143;28;20032;-84
2022/09/03 03:38:36;;;;;;;10.02;9.02;;;19.80;59.90;;;;;;5091795;28;20027;-84
2022/09/03 03:41:17;;;;;;;10.35;9.20;;;19.90;60.00;;;;;;5092256;28;20024;-85
2022/09/03 03:43:44;;;;;;;9.82;8.88;;;19.80;68.00;;;;;;5094208;28;20073;-84
2022/09/03 03:46:10;;;;;;;10.95;9.45;;;19.90;63.10;;;;;;5096318;28;20024;-84
2022/09/03 03:48:37;;;;;;;13.40;9.30;;;19.80;52.70;;;;;;5078094;28;20070;-84
2022/09/03 03:51:05;;;;;;;10.88;9.80;;;19.90;59.10;;;;;;5096391;28;20510;-85
2022/09/03 03:53:33;;;;;;;9.85;8.90;;;19.90;56.60;;;;;;5096288;28;20396;-84
2022/09/03 03:56:01;;;;;;;11.73;9.38;;;19.90;53.70;;;;;;5078576;28;20066;-85
2022/09/03 03:58:31;;;;;;;12.23;9.70;;;19.90;49.10;;;;;;5078240;28;20119;-84
2022/09/03 04:01:06;;;;;;;11.32;9.98;;;19.90;52.80;;;;;;5096070;28;20040;-84
2022/09/03 04:03:32;;;;;;;11.00;9.90;;;19.80;51.70;;;;;;5096126;28;20475;-85
2022/09/03 04:05:59;;;;;;;14.98;10.07;;;19.80;54.70;;;;;;5096051;28;20056;-84
2022/09/03 04:08:26;;;;;;;11.15;10.05;;;19.70;53.30;;;;;;5096069;28;20062;-85
2022/09/03 04:10:52;;;;;;;10.82;9.73;;;19.70;53.30;;;;;;5095990;28;20026;-84
2022/09/03 04:13:18;;;;;;;11.70;10.50;;;19.60;51.90;;;;;;5096028;28;20388;-84
2022/09/03 04:15:44;;;;;;;12.23;9.85;;;19.60;53.00;;;;;;5103125;28;20047;-84
2022/09/03 04:18:10;;;;;;;11.40;9.95;;;19.60;52.50;;;;;;5116503;28;20016;-84
2022/09/03 04:20:36;;;;;;;14.93;9.65;;;19.60;63.70;;;;;;5115938;28;20057;-84
2022/09/03 04:23:02;;;;;;;12.88;9.90;;;19.60;54.50;;;;;;5097803;28;20106;-84
2022/09/03 04:25:28;;;;;;;14.60;9.88;;;19.60;54.30;;;;;;5115904;28;20024;-84
2022/09/03 04:27:54;;;;;;;11.50;10.32;;;19.80;57.50;;;;;;5116061;28;20054;-84
2022/09/03 04:30:20;;;;;;;11.13;9.75;;;19.80;53.20;;;;;;5103281;28;20024;-84
2022/09/03 04:32:52;;;;;;;10.57;9.57;;;19.90;53.60;;;;;;5077404;28;20119;-85
2022/09/03 04:35:21;;;;;;;11.27;10.10;;;19.90;67.50;;;;;;5095202;28;20107;-84
2022/09/03 04:37:47;;;;;;;10.68;9.55;;;19.90;53.80;;;;;;5095428;28;20063;-84
2022/09/03 04:40:13;;;;;;;11.63;9.55;;;19.90;48.50;;;;;;5095348;28;20051;-84
2022/09/03 04:42:38;;;;;;;10.95;9.55;;;19.80;55.30;;;;;;5095299;28;20028;-84
2022/09/03 04:45:05;;;;;;;9.80;8.80;;;19.70;56.70;;;;;;5095423;28;20031;-83
2022/09/03 04:47:31;;;;;;;9.68;8.65;;;19.70;56.70;;;;;;5095465;28;20024;-84
2022/09/03 04:49:57;;;;;;;10.15;9.20;;;19.80;53.80;;;;;;5094776;28;20102;-84
2022/09/03 04:52:23;;;;;;;9.77;8.80;;;19.70;55.90;;;;;;5095206;28;20059;-84
2022/09/03 04:54:49;;;;;;;10.73;8.48;;;19.70;56.10;;;;;;5076502;28;20046;-84
2022/09/03 04:57:15;;;;;;;10.40;8.50;;;19.70;59.40;;;;;;5094838;28;20042;-84
2022/09/03 04:59:41;;;;;;;8.48;7.68;;;19.70;56.60;;;;;;5076706;28;20430;-84
2022/09/03 05:02:08;;;;;;;8.77;7.88;;;19.70;60.40;;;;;;5094851;28;20028;-84
2022/09/03 05:04:34;;;;;;;11.88;7.88;;;19.60;59.80;;;;;;5094543;28;20035;-84
2022/09/03 05:07:00;;;;;;;10.07;7.90;;;19.50;60.90;;;;;;5094797;28;20020;-85
2022/09/03 05:09:25;;;;;;;11.10;7.65;;;19.50;55.70;;;;;;5094489;28;20028;-84
2022/09/03 05:11:51;;;;;;;9.95;7.45;;;19.50;57.90;;;;;;5094741;28;20384;-84
2022/09/03 05:14:16;;;;;;;8.75;7.80;;;19.50;53.40;;;;;;5094578;28;20031;-84
2022/09/03 05:16:42;;;;;;;7.70;6.78;;;19.40;56.50;;;;;;5109846;28;20032;-84
2022/09/03 05:19:08;;;;;;;8.00;7.15;;;19.40;55.40;;;;;;5114559;28;20539;-85
2022/09/03 05:21:35;;;;;;;8.23;7.43;;;19.60;56.10;;;;;;5115309;28;20023;-85
2022/09/03 05:24:01;;;;;;;7.90;7.10;;;19.60;60.90;;;;;;5114789;28;20035;-84
2022/09/03 05:26:29;;;;;;;10.52;7.38;;;19.60;53.90;;;;;;5114771;28;20037;-85
2022/09/03 05:28:58;;;;;;;8.45;7.47;;;19.60;60.10;;;;;;5113749;28;20028;-84
2022/09/03 05:31:26;;;;;;;8.45;7.50;;;19.70;59.40;;;;;;5094204;28;20044;-84
2022/09/03 05:33:58;;;;;;;9.32;7.13;;;19.70;58.30;;;;;;5093812;28;20020;-85
2022/09/03 05:36:26;;;;;;;8.00;7.20;;;19.80;58.00;;;;;;5094430;28;20032;-84
2022/09/03 05:38:55;;;;;;;8.27;7.32;;;19.80;60.20;;;;;;5093843;28;20073;-83
2022/09/03 05:41:22;;;;;;;9.65;7.32;;;19.90;58.70;;;;;;5094495;28;20380;-84
2022/09/03 05:43:54;;;;;;;8.80;7.07;;;20.00;60.00;;;;;;5093954;28;20052;-84
2022/09/03 05:46:25;;;;;;;8.32;7.60;;;20.00;59.50;;;;;;5094036;28;20533;-85
2022/09/03 05:48:51;;;;;;;10.60;7.22;;;20.10;59.20;;;;;;5093723;28;20449;-84
2022/09/03 05:51:17;;;;;;;7.55;6.85;;;20.10;56.10;;;;;;5076221;28;20049;-84
2022/09/03 05:53:45;;;;;;;10.52;7.78;;;20.00;73.20;;;;;;5093936;28;20583;-84
2022/09/03 05:56:15;;;;;;;10.20;7.22;;;19.90;61.30;;;;;;5093644;28;20488;-85
2022/09/03 05:58:44;;;;;;;8.27;7.45;;;19.90;75.10;;;;;;5093820;28;20023;-84
2022/09/03 06:01:16;;;;;;;8.98;7.53;;;20.00;62.80;;;;;;5093685;28;20483;-85
2022/09/03 06:03:43;;;;;;;9.68;8.00;;;20.00;63.70;;;;;;5093402;28;20381;-84
2022/09/03 06:06:09;;;;;;;10.20;8.02;;;20.00;61.00;;;;;;5092579;28;20016;-85
2022/09/03 06:08:38;;;;;;;9.13;8.23;;;20.10;59.90;;;;;;5093851;28;20032;-84
2022/09/03 06:11:05;;;;;;;9.18;8.30;;;20.20;56.40;;;;;;5092931;28;20056;-85
2022/09/03 06:13:32;;;;;;;11.25;8.30;;;20.30;62.70;;;;;;5093040;28;20039;-85
2022/09/03 06:16:02;;;;;;;8.82;8.02;;;20.40;59.30;;;;;;5102420;28;20044;-86
2022/09/03 06:18:29;;;;;;;10.68;8.63;;;20.50;59.50;;;;;;5113312;28;20024;-85
2022/09/03 06:20:56;;;;;;;9.68;7.82;;;20.60;57.80;;;;;;5113550;28;20024;-86
2022/09/03 06:23:22;;;;;;;10.88;7.90;;;20.70;61.20;;;;;;5095342;28;20395;-85
2022/09/03 06:25:58;;;;;;;9.00;7.47;;;20.80;56.30;;;;;;5113223;28;20043;-85
2022/09/03 06:28:25;;;;;;;8.57;7.53;;;20.90;59.70;;;;;;5096167;28;20041;-85
2022/09/03 06:30:51;;;;;;;11.95;8.02;;;21.00;54.20;;;;;;5077429;28;20051;-85
2022/09/03 06:33:17;;;;;;;10.45;7.90;;;21.10;59.50;;;;;;5093102;28;20396;-85
2022/09/03 06:35:43;;;;;;;8.40;7.40;;;21.20;54.80;;;;;;5092568;28;20027;-85
2022/09/03 06:38:11;;;;;;;8.75;7.88;;;21.40;52.80;;;;;;5092936;28;20024;-85
2022/09/03 06:40:37;;;;;;;13.45;7.72;;;21.50;56.20;;;;;;5093017;28;20488;-85
2022/09/03 06:43:03;;;;;;;8.98;7.78;;;21.50;51.20;;;;;;5092818;28;20031;-85
2022/09/03 06:45:30;;;;;;;8.63;7.22;;;21.60;50.80;;;;;;5092488;28;20096;-85
2022/09/03 06:47:55;;;;;;;8.85;7.47;;;21.70;57.40;;;;;;5092849;28;20646;-85
2022/09/03 06:50:22;;;;;;;9.43;7.93;;;21.70;54.80;;;;;;5092548;28;20043;-85
2022/09/03 06:52:53;;;;;;;9.25;7.65;;;21.90;59.90;;;;;;5092574;28;20032;-85
2022/09/03 06:55:20;;;;;;;9.88;8.02;;;21.90;74.20;;;;;;5092623;28;20032;-86
2022/09/03 06:57:46;;;;;;;8.90;7.88;;;22.00;59.20;;;;;;5074947;28;20583;-85
2022/09/03 07:00:13;;;;;;;13.65;7.82;;;22.10;59.30;;;;;;5092261;28;20048;-84
2022/09/03 07:02:40;;;;;;;10.60;7.93;;;22.10;61.00;;;;;;5092714;28;20020;-85
2022/09/03 07:05:06;;;;;;;9.00;7.97;;;22.10;59.40;;;;;;5092505;28;20105;-85
2022/09/03 07:07:32;;;;;;;10.65;7.88;;;22.30;61.00;;;;;;5092787;28;20028;-85
2022/09/03 07:09:58;;;;;;;9.00;8.00;;;22.50;56.60;;;;;;5074064;28;20043;-85
2022/09/03 07:12:23;;;;;;;8.18;7.38;;;22.60;52.00;;;;;;5092865;28;20110;-85
2022/09/03 07:14:49;;;;;;;9.20;7.70;;;22.60;56.60;;;;;;5091983;28;20020;-84
2022/09/03 07:17:15;;;;;;;7.90;7.10;;;22.80;57.80;;;;;;5092088;28;20492;-85
2022/09/03 07:19:41;;;;;;;8.80;6.90;;;22.90;55.60;;;;;;5092114;28;20032;-85
2022/09/03 07:22:09;;;;;;;8.40;6.82;;;22.90;57.90;;;;;;5087369;28;20036;-85
2022/09/03 07:24:36;;;;;;;8.15;6.90;;;22.80;56.50;;;;;;5087007;28;20024;-85
2022/09/03 07:27:02;;;;;;;7.68;6.85;;;22.80;57.70;;;;;;5092022;28;20027;-85
2022/09/03 07:29:27;;;;;;;10.18;7.57;;;22.90;57.50;;;;;;5106848;28;20051;-86
2022/09/03 07:31:53;;;;;;;7.40;6.72;;;22.80;59.90;;;;;;5091979;28;20055;-86
2022/09/03 07:34:22;;;;;;;8.25;7.40;;;22.90;55.10;;;;;;5092210;28;20024;-86
2022/09/03 07:36:49;;;;;;;8.05;6.78;;;23.00;65.80;;;;;;5092356;28;20043;-86
2022/09/03 07:39:16;;;;;;;7.72;6.10;;;23.10;57.90;;;;;;5092076;28;20032;-86
2022/09/03 07:41:44;;;;;;;7.72;6.85;;;23.20;60.80;;;;;;5092260;28;20077;-86
2022/09/03 07:44:10;;;;;;;7.28;6.57;;;23.10;59.00;;;;;;5091662;28;20107;-87
2022/09/03 07:46:37;;;;;;;7.45;6.60;;;23.20;61.50;;;;;;5091981;28;20479;-86
2022/09/03 07:49:04;;;;;;;9.57;6.88;;;23.40;58.40;;;;;;5091756;28;20017;-87
2022/09/03 07:51:36;;;;;;;6.63;6.03;;;23.60;60.20;;;;;;5092260;28;20099;-87
2022/09/03 07:54:08;;;;;;;6.55;5.95;;;23.70;67.60;;;;;;5074336;28;20024;-87
2022/09/03 07:56:34;;;;;;;7.80;6.35;;;23.80;64.40;;;;;;5091909;28;20043;-86
2022/09/03 07:59:01;;;;;;;8.05;7.22;;;23.80;61.10;;;;;;5091533;28;20024;-86
2022/09/03 08:01:30;;;;;;;9.13;6.57;;;23.60;60.30;;;;;;5091711;28;20115;-86
2022/09/03 08:03:56;;;;;;;7.68;6.53;;;23.50;62.90;;;;;;5090960;28;20020;-87
2022/09/03 08:06:23;;;;;;;10.43;6.40;;;23.70;58.60;;;;;;5091894;28;20357;-87
2022/09/03 08:08:58;;;;;;;8.27;6.38;;;23.90;68.20;;;;;;5073864;28;20495;-86
2022/09/03 08:11:26;;;;;;;7.13;6.35;;;24.00;64.80;;;;;;5073717;28;20028;-86
2022/09/03 08:14:00;;;;;;;8.65;6.68;;;24.20;61.50;;;;;;5091470;28;20020;-86
2022/09/03 08:16:27;;;;;;;8.77;6.55;;;24.30;61.80;;;;;;5091511;28;20036;-86
2022/09/03 08:18:53;;;;;;;8.68;6.68;;;24.30;77.50;;;;;;5091456;28;20051;-86
2022/09/03 08:21:19;;;;;;;6.38;5.63;;;24.40;57.90;;;;;;5091966;28;20484;-86
2022/09/03 08:23:47;;;;;;;8.50;6.20;;;24.30;54.80;;;;;;5073593;28;20028;-87
2022/09/03 08:26:14;;;;;;;7.20;5.60;;;24.40;64.40;;;;;;5091710;28;20078;-87
2022/09/03 08:28:41;;;;;;;8.27;5.78;;;24.70;55.90;;;;;;5092092;28;20031;-86
2022/09/03 08:31:11;;;;;;;7.82;5.50;;;24.90;59.70;;;;;;5094923;28;20052;-87
2022/09/03 08:33:42;;;;;;;9.30;5.38;;;25.00;55.50;;;;;;5095364;28;20089;-87
2022/09/03 08:36:13;;;;;;;7.38;5.40;;;24.90;59.60;;;;;;5095353;28;20063;-86
2022/09/03 08:38:42;;;;;;;5.80;5.20;;;25.00;58.60;;;;;;5095260;28;20027;-87
2022/09/03 08:41:15;;;;;;;6.78;5.43;;;25.10;79.50;;;;;;5095288;28;20036;-86
2022/09/03 08:44:02;;;;;;;6.18;5.55;;;25.30;63.10;;;;;;5094766;28;20024;-87
2022/09/03 08:46:58;;;;;;;5.70;5.10;;;25.10;77.60;;;;;;5094840;28;20032;-87
2022/09/03 08:49:32;;;;;;;8.75;5.95;;;25.50;65.30;;;;;;5093253;28;20036;-87
2022/09/03 08:52:04;;;;;;;5.03;4.57;;;25.40;62.30;;;;;;5094984;28;20020;-87
2022/09/03 08:54:31;;;;;;;5.72;4.97;;;25.40;57.20;;;;;;5095323;28;20557;-86
2022/09/03 08:57:01;;;;;;;6.40;4.95;;;25.30;59.50;;;;;;5094326;28;20036;-86
2022/09/03 08:59:28;;;;;;;4.68;3.80;;;25.40;62.20;;;;;;5076036;28;20539;-86
2022/09/03 09:01:57;;;;;;;6.40;3.70;;;25.40;55.40;;;;;;5071674;28;20395;-87
2022/09/03 09:04:42;;;;;;;5.10;3.42;;;25.40;52.40;;;;;;5076530;28;20500;-87
2022/09/03 09:07:20;;;;;;;4.05;3.22;;;25.50;77.10;;;;;;5094264;28;20107;-87
2022/09/03 09:10:18;;;;;;;4.63;3.00;;;26.40;72.00;;;;;;5075836;28;20392;-86
2022/09/03 09:12:55;;;;;;;4.00;3.05;;;26.70;73.90;;;;;;5074869;28;20024;-86
2022/09/03 09:15:39;;;;;;;4.20;3.38;;;26.20;71.80;;;;;;5085426;28;20495;-86
2022/09/03 09:18:04;;;;;;;3.83;2.95;;;26.10;75.40;;;;;;5114985;28;20033;-86
2022/09/03 09:20:36;;;;;;;3.15;2.85;;;26.30;59.10;;;;;;5105529;28;20438;-86
2022/09/03 09:23:05;;;;;;;4.07;2.40;;;26.50;60.20;;;;;;5094322;28;20048;-86
2022/09/03 09:25:37;;;;;;;3.58;3.00;;;26.60;63.60;;;;;;5075517;28;20483;-86
2022/09/03 09:28:22;;;;;;;3.95;3.05;;;27.10;66.30;;;;;;5093765;28;20484;-87
2022/09/03 09:30:50;;;;;;;5.05;3.20;;;27.00;73.70;;;;;;5093809;28;20137;-86
2022/09/03 09:33:17;;;;;;;5.20;3.53;;;26.70;55.50;;;;;;5094347;28;20043;-86
2022/09/03 09:35:44;;;;;;;3.70;3.10;;;26.70;57.00;;;;;;5093684;28;20492;-86
2022/09/03 09:38:11;;;;;;;6.25;3.35;;;26.90;58.90;;;;;;5093928;28;20036;-87
2022/09/03 09:40:42;;;;;;;3.95;3.35;;;27.20;54.50;;;;;;5093795;28;20093;-86
2022/09/03 09:43:18;;;;;;;5.18;3.40;;;27.30;56.40;;;;;;5094062;28;20423;-87
2022/09/03 09:45:45;;;;;;;4.85;3.50;;;27.60;56.10;;;;;;5075280;28;20035;-86
2022/09/03 09:48:33;;;;;;;4.72;3.17;;;27.70;59.80;;;;;;5083794;28;20400;-86
2022/09/03 09:51:05;;;;;;;3.83;2.83;;;27.40;53.10;;;;;;5072981;28;20039;-88
2022/09/03 09:53:30;;;;;;;4.57;2.90;;;28.70;59.10;;;;;;5083648;28;20032;-86
2022/09/03 09:55:59;;;;;;;5.15;2.80;;;30.20;62.60;;;;;;5098338;28;20020;-86
2022/09/03 09:58:29;;;;;;;3.58;2.78;;;35.50;70.20;;;;;;5103116;28;20054;-86
2022/09/03 10:00:58;;;;;;;4.35;2.80;;;36.60;94.40;;;;;;5085289;28;20039;-86
2022/09/03 10:03:24;;;;;;;4.35;2.85;;;34.30;90.70;;;;;;5091862;28;20043;-87
2022/09/03 10:09:17;;;;;;;4.30;3.20;;;32.50;93.00;;;;;;5106825;28;20047;-87
2022/09/03 10:11:49;;;;;;;3.30;3.00;;;39.70;93.20;;;;;;5111580;28;20023;-87
2022/09/03 10:14:39;;;;;;;4.05;3.00;;;34.10;87.60;;;;;;5073101;28;20027;-87
2022/09/03 10:17:28;;;;;;;3.60;2.63;;;34.90;90.50;;;;;;5090678;28;20050;-86
2022/09/03 10:22:48;;;;;;;3.75;3.13;;;30.80;74.60;;;;;;5093045;28;20043;-87
2022/09/03 10:25:16;;;;;;;3.03;2.67;;;30.60;53.00;;;;;;5092849;28;20073;-87
2022/09/03 10:27:44;;;;;;;3.28;2.60;;;29.10;76.20;;;;;;5075144;28;20436;-87
2022/09/03 10:30:13;;;;;;;3.88;2.90;;;28.80;40.00;;;;;;5092579;28;20073;-87
2022/09/03 10:33:00;;;;;;;3.08;2.72;;;28.90;75.80;;;;;;5095487;28;20046;-86
2022/09/03 10:35:32;;;;;;;3.00;2.80;;;34.40;83.10;;;;;;5113438;28;20035;-86
2022/09/03 10:38:31;;;;;;;2.72;2.53;;;40.50;87.80;;;;;;5081643;28;20047;-86
2022/09/03 10:41:40;;;;;;;2.70;2.50;;;44.10;86.30;;;;;;5091971;28;20099;-87
2022/09/03 10:44:12;;;;;;;3.15;2.75;;;45.60;75.80;;;;;;5092084;28;20080;-86
2022/09/03 10:47:06;;;;;;;3.95;2.55;;;41.70;67.00;;;;;;5092574;28;20508;-88
2022/09/03 10:49:42;;;;;;;4.82;2.60;;;41.00;63.50;;;;;;5092489;28;20024;-88
2022/09/03 10:52:39;;;;;;;3.25;2.60;;;36.70;53.60;;;;;;5093988;28;20080;-88
2022/09/03 10:55:21;;;;;;;3.95;2.50;;;40.30;62.60;;;;;;5078350;28;20047;-87
2022/09/03 10:57:52;;;;;;;3.45;2.47;;;39.40;64.40;;;;;;5091977;28;20039;-87
2022/09/03 11:00:19;;;;;;;2.80;2.38;;;35.70;59.50;;;;;;5092642;28;20079;-87
2022/09/03 11:03:02;;;;;;;2.33;2.13;;;38.70;67.00;;;;;;5092152;28;20028;-87
2022/09/03 11:05:38;;;;;;;3.22;2.65;;;40.60;52.30;;;;;;5092627;28;20028;-87
2022/09/03 11:08:20;;;;;;;2.80;2.25;;;35.80;47.70;;;;;;5091454;28;20036;-87
2022/09/03 11:10:51;;;;;;;2.95;2.53;;;36.00;48.70;;;;;;5087107;28;20111;-87
2022/09/03 11:13:26;;;;;;;3.20;2.47;;;34.00;50.40;;;;;;5100840;28;20023;-87
2022/09/03 11:15:58;;;;;;;2.60;2.40;;;39.60;53.10;;;;;;5104141;28;20027;-87
2022/09/03 11:18:45;;;;;;;2.85;2.58;;;44.00;56.20;;;;;;5092271;28;20511;-87
2022/09/03 11:21:14;;;;;;;3.15;2.50;;;40.60;53.80;;;;;;5091788;28;20077;-87
2022/09/03 11:23:46;;;;;;;3.05;2.40;;;42.10;50.40;;;;;;5092183;28;20027;-87
2022/09/03 11:26:17;;;;;;;2.95;2.38;;;45.00;52.40;;;;;;5092043;28;20020;-87
2022/09/03 11:29:05;;;;;;;3.55;2.22;;;46.10;50.80;;;;;;5075992;28;20376;-87
2022/09/03 11:31:40;;;;;;;2.60;2.40;;;43.10;51.70;;;;;;5078207;28;20048;-87
2022/09/03 11:34:08;;;;;;;2.70;2.50;;;43.00;49.90;;;;;;5071967;28;20055;-87
2022/09/03 11:36:37;;;;;;;4.65;2.40;;;39.40;49.40;;;;;;5071512;28;20506;-87
2022/09/03 11:39:17;;;;;;;3.30;2.70;;;36.50;49.70;;;;;;5092105;28;20445;-87
2022/09/03 11:41:56;;;;;;;2.78;2.33;;;34.30;50.50;;;;;;5091715;28;20020;-87
2022/09/03 11:44:22;;;;;;;4.30;2.70;;;33.30;41.40;;;;;;5092048;28;20020;-87
2022/09/03 11:46:57;;;;;;;4.63;2.80;;;35.90;40.20;;;;;;5073963;28;20032;-87
2022/09/03 11:49:29;;;;;;;2.47;2.28;;;35.30;49.90;;;;;;5091683;28;20500;-86
2022/09/03 11:52:00;;;;;;;2.90;2.63;;;34.70;35.60;;;;;;5091057;28;20050;-87
2022/09/03 11:54:27;;;;;;;3.35;2.72;;;39.10;45.30;;;;;;5091650;28;20248;-87
2022/09/03 11:57:13;;;;;;;3.72;2.83;;;38.90;41.50;;;;;;5091902;28;20035;-87
2022/09/03 11:59:43;;;;;;;4.03;2.90;;;35.10;39.60;;;;;;5073343;28;20016;-87
2022/09/03 12:02:29;;;;;;;2.97;2.60;;;34.00;33.30;;;;;;5092344;28;20089;-87
2022/09/03 12:05:22;;;;;;;2.80;2.47;;;36.90;47.20;;;;;;5093551;28;20031;-87
2022/09/03 12:08:06;;;;;;;2.55;2.35;;;35.10;46.30;;;;;;5092607;28;20403;-87
2022/09/03 12:11:01;;;;;;;2.60;2.40;;;38.50;49.20;;;;;;5095310;28;20084;-87
2022/09/03 12:13:49;;;;;;;3.33;2.40;;;37.80;43.90;;;;;;5094592;28;20107;-87
2022/09/03 12:16:50;;;;;;;2.95;2.75;;;35.30;44.10;;;;;;5095400;28;20035;-87
2022/09/03 12:19:59;;;;;;;3.00;2.70;;;34.20;48.40;;;;;;5056724;28;20579;-88
2022/09/03 12:22:28;;;;;;;3.53;2.45;;;34.10;43.10;;;;;;5074681;28;20041;-87
2022/09/03 12:24:55;;;;;;;3.63;2.80;;;33.80;41.80;;;;;;5076903;28;20051;-87
2022/09/03 12:27:25;;;;;;;3.60;2.63;;;33.10;35.60;;;;;;5074958;28;20103;-87
2022/09/03 12:29:59;;;;;;;3.67;2.58;;;32.70;34.50;;;;;;5094872;28;20454;-87
2022/09/03 12:32:31;;;;;;;3.13;2.60;;;32.00;35.00;;;;;;5095362;28;20055;-87
2022/09/03 12:34:57;;;;;;;2.65;2.45;;;31.60;38.80;;;;;;5094638;28;20099;-87
2022/09/03 12:37:25;;;;;;;27.45;4.10;;;31.70;41.50;;;;;;5094685;28;20111;-86
2022/09/03 12:39:53;;;;;;;4.18;2.72;;;32.30;39.00;;;;;;5094879;28;20494;-87
2022/09/03 12:42:24;;;;;;;5.97;3.22;;;32.10;42.50;;;;;;5095451;28;20028;-89
2022/09/03 12:44:50;;;;;;;3.55;2.80;;;32.20;29.70;;;;;;5095258;28;20031;-88
2022/09/03 12:47:18;;;;;;;3.38;2.78;;;31.90;30.60;;;;;;5094829;28;20031;-88
2022/09/03 12:49:47;;;;;;;3.85;2.85;;;30.80;37.30;;;;;;5094343;28;20034;-87
2022/09/03 12:52:32;;;;;;;3.88;2.92;;;31.10;42.60;;;;;;5094335;28;20024;-86
2022/09/03 12:55:22;;;;;;;4.00;2.97;;;31.60;37.60;;;;;;5074388;28;20116;-86
2022/09/03 12:57:54;;;;;;;4.97;2.90;;;30.90;39.40;;;;;;5083051;28;20046;-86
2022/09/03 13:00:21;;;;;;;4.05;3.20;;;30.70;39.50;;;;;;5114992;28;20575;-86
2022/09/03 13:02:55;;;;;;;3.83;3.10;;;29.90;38.80;;;;;;5115515;28;20437;-86
2022/09/03 13:05:29;;;;;;;4.53;3.00;;;29.20;32.20;;;;;;5099093;28;20170;-86
2022/09/03 13:07:59;;;;;;;4.35;3.33;;;29.10;35.60;;;;;;5093515;28;20115;-85
2022/09/03 13:10:40;;;;;;;5.00;2.95;;;28.40;35.00;;;;;;5093265;28;20024;-86
2022/09/03 13:13:29;;;;;;;5.28;3.20;;;28.20;34.20;;;;;;5093724;28;20034;-85
2022/09/03 13:16:04;;;;;;;3.67;2.97;;;28.60;30.10;;;;;;5091872;28;20035;-86